Aviation Digital Data Service (ADDS)

Output produced by TAFs form (2103 UTC 21 October 2017)
found at http://aviationweather.gov/adds/tafs/
 
KTUS 211727Z 2118/2218 33008KT P6SM FEW250 
     FM220300 24005KT P6SM SKC 
     FM220800 13008KT P6SM SKC